Time;durP1;ratioP1;P1;durP2;ratioP2;P2;SDS_P1;SDS_P2;PMS_P1;PMS_P2;Temp;Humidity;BMP_temperature;BMP_pressure;BME280_temperature;BME280_humidity;BME280_pressure;Samples;Min_cycle;Max_cycle;Signal;HPM_P1;HPM_P2
2023/06/18 00:07:45;;;;;;;;;;;25.40;48.70;;;;;;20998682;28;20296;-60
2023/06/18 00:17:46;;;;;;;;;;;25.30;49.30;;;;;;20996020;28;19935;-60
2023/06/18 00:27:47;;;;;;;;;;;25.20;49.50;;;;;;20996423;28;19930;-59
2023/06/18 00:37:48;;;;;;;;;;;25.10;49.90;;;;;;20997378;28;20385;-59
2023/06/18 00:47:49;;;;;;;;;;;24.90;50.60;;;;;;20995564;28;19928;-59
2023/06/18 00:57:59;;;;;;;;;;;24.80;50.80;;;;;;20995381;28;19924;-59
2023/06/18 01:08:00;;;;;;;;;;;24.70;51.00;;;;;;20996311;28;20411;-61
2023/06/18 01:18:01;;;;;;;;;;;24.60;51.50;;;;;;20995577;28;19925;-59
2023/06/18 01:28:07;;;;;;;;;;;24.50;52.00;;;;;;21003899;28;19936;-59
2023/06/18 01:38:34;;;;;;;;;;;24.30;52.60;;;;;;21010728;28;19978;-60
2023/06/18 01:48:36;;;;;;;;;;;24.20;52.90;;;;;;21007712;28;20334;-60
2023/06/18 01:58:40;;;;;;;;;;;24.20;53.40;;;;;;21007533;28;19932;-58
2023/06/18 02:08:41;;;;;;;;;;;24.10;53.70;;;;;;21008151;28;19932;-59
2023/06/18 02:18:42;;;;;;;;;;;23.90;54.10;;;;;;21007390;28;19929;-59
2023/06/18 02:28:43;;;;;;;;;;;24.00;54.30;;;;;;21006336;28;19925;-60
2023/06/18 02:38:43;;;;;;;;;;;24.00;54.40;;;;;;21004777;28;19925;-59
2023/06/18 02:48:44;;;;;;;;;;;24.00;54.50;;;;;;21004241;28;20011;-60
2023/06/18 02:58:46;;;;;;;;;;;24.00;54.70;;;;;;21004552;28;20035;-60
2023/06/18 03:08:46;;;;;;;;;;;24.00;55.00;;;;;;21003711;28;19924;-59
2023/06/18 03:18:47;;;;;;;;;;;24.00;55.20;;;;;;21001609;28;19928;-59
2023/06/18 03:28:48;;;;;;;;;;;23.80;55.70;;;;;;21002809;28;20382;-60
2023/06/18 03:38:49;;;;;;;;;;;23.70;55.80;;;;;;20999679;28;19925;-59
2023/06/18 03:48:49;;;;;;;;;;;23.80;55.80;;;;;;21000159;28;19925;-59
2023/06/18 03:58:50;;;;;;;;;;;23.80;55.70;;;;;;20999929;28;20348;-60
2023/06/18 04:08:51;;;;;;;;;;;23.70;55.80;;;;;;20997480;28;19928;-60
2023/06/18 04:18:51;;;;;;;;;;;23.70;56.10;;;;;;20998236;28;20385;-59
2023/06/18 04:28:52;;;;;;;;;;;23.60;56.10;;;;;;20996682;28;19930;-58
2023/06/18 04:38:53;;;;;;;;;;;23.60;56.10;;;;;;20995682;28;20082;-59
2023/06/18 04:48:53;;;;;;;;;;;23.60;55.80;;;;;;20997134;28;20437;-59
2023/06/18 04:58:56;;;;;;;;;;;23.60;55.80;;;;;;20999050;28;20385;-59
2023/06/18 05:08:56;;;;;;;;;;;23.60;55.20;;;;;;21013259;28;19925;-59
2023/06/18 05:18:57;;;;;;;;;;;23.70;53.70;;;;;;21011270;28;19925;-60
2023/06/18 05:28:57;;;;;;;;;;;23.70;52.50;;;;;;21009713;28;19946;-59
2023/06/18 05:39:02;;;;;;;;;;;23.90;50.40;;;;;;21009077;28;19928;-60
2023/06/18 05:49:03;;;;;;;;;;;23.90;50.30;;;;;;21010255;28;19925;-60
2023/06/18 05:59:03;;;;;;;;;;;23.90;50.00;;;;;;21009223;28;19925;-59
2023/06/18 06:09:04;;;;;;;;;;;24.10;47.40;;;;;;21007408;28;20338;-59
2023/06/18 06:19:04;;;;;;;;;;;24.20;46.30;;;;;;21007829;28;19931;-59
2023/06/18 06:29:05;;;;;;;;;;;24.30;46.10;;;;;;21007904;28;19931;-61
2023/06/18 06:39:06;;;;;;;;;;;24.40;46.00;;;;;;21006518;28;19925;-59
2023/06/18 06:49:07;;;;;;;;;;;24.30;45.80;;;;;;21006166;28;19924;-59
2023/06/18 06:59:08;;;;;;;;;;;24.50;45.80;;;;;;21004781;28;19931;-60
2023/06/18 07:09:09;;;;;;;;;;;25.10;45.00;;;;;;21004080;28;20403;-59
2023/06/18 07:19:09;;;;;;;;;;;25.70;43.70;;;;;;21003052;28;19967;-59
2023/06/18 07:29:10;;;;;;;;;;;26.20;41.90;;;;;;21000024;28;19985;-60
2023/06/18 07:39:11;;;;;;;;;;;26.70;41.10;;;;;;21000064;28;19925;-60
2023/06/18 07:49:12;;;;;;;;;;;26.80;40.20;;;;;;20999083;28;19929;-59
2023/06/18 07:59:13;;;;;;;;;;;27.20;39.10;;;;;;20999271;28;19968;-60
2023/06/18 08:09:14;;;;;;;;;;;27.40;38.90;;;;;;20999065;28;19929;-59
2023/06/18 08:19:14;;;;;;;;;;;27.40;39.90;;;;;;20996076;28;19978;-61
2023/06/18 08:29:15;;;;;;;;;;;27.10;40.10;;;;;;20998875;28;19978;-62
2023/06/18 08:39:16;;;;;;;;;;;27.30;39.20;;;;;;20996481;28;20313;-61
2023/06/18 08:49:17;;;;;;;;;;;27.60;38.70;;;;;;20995341;28;19924;-62
2023/06/18 08:59:18;;;;;;;;;;;27.80;38.20;;;;;;20996089;28;19924;-60
2023/06/18 09:09:19;;;;;;;;;;;27.60;39.20;;;;;;20924742;28;19928;-61
2023/06/18 09:19:21;;;;;;;;;;;27.60;39.30;;;;;;20904231;28;19925;-60
2023/06/18 09:29:26;;;;;;;;;;;27.80;38.90;;;;;;20907575;28;19925;-62
2023/06/18 09:39:27;;;;;;;;;;;27.90;39.40;;;;;;20901175;28;19925;-62
2023/06/18 09:49:28;;;;;;;;;;;27.90;39.20;;;;;;20913529;28;20038;-58
2023/06/18 09:59:29;;;;;;;;;;;28.10;39.10;;;;;;20914004;28;19999;-63
2023/06/18 10:09:35;;;;;;;;;;;28.40;38.90;;;;;;20914114;28;19947;-63
2023/06/18 10:19:47;;;;;;;;;;;28.60;38.50;;;;;;20916009;28;19924;-61
2023/06/18 10:29:48;;;;;;;;;;;28.70;37.90;;;;;;20913985;28;19932;-61
2023/06/18 10:39:49;;;;;;;;;;;29.00;37.50;;;;;;20921187;28;19925;-62
2023/06/18 10:50:01;;;;;;;;;;;29.40;37.30;;;;;;20922103;28;19971;-61
2023/06/18 11:00:12;;;;;;;;;;;29.20;36.50;;;;;;20919635;28;19935;-62
2023/06/18 11:10:30;;;;;;;;;;;29.40;37.20;;;;;;20921201;28;19964;-60
2023/06/18 11:20:33;;;;;;;;;;;29.60;36.20;;;;;;20918233;28;19932;-61
2023/06/18 11:30:36;;;;;;;;;;;29.40;36.80;;;;;;20920275;28;19968;-62
2023/06/18 11:40:46;;;;;;;;;;;29.60;36.10;;;;;;20917754;28;19925;-62
2023/06/18 11:50:50;;;;;;;;;;;29.90;35.90;;;;;;20917480;28;19925;-61
2023/06/18 12:00:51;;;;;;;;;;;30.00;35.70;;;;;;20916516;28;19929;-61
2023/06/18 12:10:53;;;;;;;;;;;30.20;35.10;;;;;;20914963;28;19935;-61
2023/06/18 12:20:54;;;;;;;;;;;30.30;34.40;;;;;;20913601;28;20003;-61
2023/06/18 12:30:55;;;;;;;;;;;30.30;34.20;;;;;;20913841;28;20058;-62
2023/06/18 12:40:56;;;;;;;;;;;30.80;33.40;;;;;;20912460;28;19990;-61
2023/06/18 12:50:59;;;;;;;;;;;31.10;33.50;;;;;;20912943;28;19925;-62
2023/06/18 13:01:00;;;;;;;;;;;31.00;33.60;;;;;;20912563;28;19967;-62
2023/06/18 13:11:00;;;;;;;;;;;31.40;33.20;;;;;;20911860;28;19924;-61
2023/06/18 13:21:02;;;;;;;;;;;31.30;33.80;;;;;;20914673;28;19925;-62
2023/06/18 13:31:03;;;;;;;;;;;31.50;33.40;;;;;;20928527;28;20396;-62
2023/06/18 13:41:03;;;;;;;;;;;31.20;33.60;;;;;;20927638;28;19976;-62
2023/06/18 13:51:04;;;;;;;;;;;31.10;33.70;;;;;;20927494;28;19968;-60
2023/06/18 14:01:05;;;;;;;;;;;31.40;33.80;;;;;;20926418;28;19970;-62
2023/06/18 14:11:06;;;;;;;;;;;32.00;32.60;;;;;;20924330;28;19932;-64
2023/06/18 14:21:06;;;;;;;;;;;32.00;32.50;;;;;;20924368;28;19925;-63
2023/06/18 14:31:07;;;;;;;;;;;31.90;33.00;;;;;;20922831;28;20004;-62
2023/06/18 14:41:08;;;;;;;;;;;32.30;32.40;;;;;;20922543;28;20018;-62
2023/06/18 14:51:08;;;;;;;;;;;32.30;32.60;;;;;;20920987;28;19932;-63
2023/06/18 15:01:09;;;;;;;;;;;32.10;32.70;;;;;;20921400;28;20448;-63
2023/06/18 15:11:09;;;;;;;;;;;32.20;32.60;;;;;;20920652;28;19928;-61
2023/06/18 15:21:11;;;;;;;;;;;32.20;32.20;;;;;;20919625;28;20109;-62
2023/06/18 15:31:12;;;;;;;;;;;32.10;31.90;;;;;;20919068;28;19932;-61
2023/06/18 15:41:12;;;;;;;;;;;31.80;32.10;;;;;;20917681;28;19937;-62
2023/06/18 15:51:13;;;;;;;;;;;31.60;32.90;;;;;;20917337;28;20344;-62
2023/06/18 16:01:14;;;;;;;;;;;31.20;39.20;;;;;;20914313;28;19994;-60
2023/06/18 16:11:14;;;;;;;;;;;30.80;38.20;;;;;;20914375;28;19924;-62
2023/06/18 16:21:16;;;;;;;;;;;31.00;35.90;;;;;;20912574;28;19925;-61
2023/06/18 16:31:17;;;;;;;;;;;31.30;34.30;;;;;;20914439;28;19931;-61
2023/06/18 16:41:18;;;;;;;;;;;31.30;33.70;;;;;;20912517;28;19947;-63
2023/06/18 16:51:19;;;;;;;;;;;31.30;34.20;;;;;;20913326;28;20381;-62
2023/06/18 17:01:20;;;;;;;;;;;31.40;34.10;;;;;;20912420;28;20035;-61
2023/06/18 17:11:21;;;;;;;;;;;31.40;34.40;;;;;;20911203;28;19971;-61
2023/06/18 17:21:22;;;;;;;;;;;31.60;34.10;;;;;;20912114;28;20285;-62
2023/06/18 17:31:23;;;;;;;;;;;31.50;33.90;;;;;;20912011;28;20007;-61
2023/06/18 17:41:23;;;;;;;;;;;31.40;34.00;;;;;;20911737;28;19993;-61
2023/06/18 17:51:24;;;;;;;;;;;31.20;34.20;;;;;;20911442;28;19968;-61
2023/06/18 18:01:25;;;;;;;;;;;31.10;34.50;;;;;;20910916;28;19925;-62
2023/06/18 18:11:27;;;;;;;;;;;30.90;34.80;;;;;;20921476;28;19925;-61
2023/06/18 18:21:27;;;;;;;;;;;30.70;35.20;;;;;;20924537;28;19925;-60
2023/06/18 18:31:28;;;;;;;;;;;30.40;36.10;;;;;;20923015;28;19936;-60
2023/06/18 18:41:29;;;;;;;;;;;30.10;36.20;;;;;;20922067;28;20397;-61
2023/06/18 18:51:30;;;;;;;;;;;30.00;36.40;;;;;;20921653;28;19983;-61
2023/06/18 19:01:30;;;;;;;;;;;29.80;36.30;;;;;;20921581;28;20388;-60
2023/06/18 19:11:31;;;;;;;;;;;29.70;36.60;;;;;;20920675;28;19931;-61
2023/06/18 19:21:32;;;;;;;;;;;29.30;36.60;;;;;;20917718;28;19924;-62
2023/06/18 19:31:33;;;;;;;;;;;29.10;36.60;;;;;;20917784;28;19929;-60
2023/06/18 19:41:33;;;;;;;;;;;29.00;36.90;;;;;;20917978;28;20354;-59
2023/06/18 19:51:35;;;;;;;;;;;28.60;37.60;;;;;;20916807;28;20432;-59
2023/06/18 20:01:36;;;;;;;;;;;28.60;37.50;;;;;;20914842;28;19924;-59
2023/06/18 20:11:36;;;;;;;;;;;28.60;37.60;;;;;;20914006;28;19991;-61
2023/06/18 20:21:37;;;;;;;;;;;28.40;37.80;;;;;;20912786;28;20280;-61
2023/06/18 20:31:37;;;;;;;;;;;28.20;37.70;;;;;;20914089;28;19925;-60
2023/06/18 20:41:38;;;;;;;;;;;28.20;37.60;;;;;;20912990;28;20480;-60
2023/06/18 20:51:39;;;;;;;;;;;28.10;37.30;;;;;;20912538;28;19925;-60
2023/06/18 21:01:39;;;;;;;;;;;28.10;37.50;;;;;;20912269;28;19925;-61
2023/06/18 21:11:41;;;;;;;;;;;28.20;37.50;;;;;;20912686;28;19964;-62
2023/06/18 21:21:42;;;;;;;;;;;28.00;37.70;;;;;;20912029;28;19972;-61
2023/06/18 21:31:43;;;;;;;;;;;27.90;38.00;;;;;;20911639;28;19935;-60
2023/06/18 21:41:44;;;;;;;;;;;27.80;38.10;;;;;;20915472;28;19925;-61
2023/06/18 21:51:44;;;;;;;;;;;27.70;38.40;;;;;;20925369;28;19929;-59
2023/06/18 22:01:45;;;;;;;;;;;27.60;38.80;;;;;;20925928;28;20416;-59
2023/06/18 22:11:46;;;;;;;;;;;27.50;39.90;;;;;;20925300;28;19931;-59
2023/06/18 22:21:46;;;;;;;;;;;27.50;39.70;;;;;;20924314;28;19925;-61
2023/06/18 22:31:48;;;;;;;;;;;27.50;39.40;;;;;;20923773;28;20001;-61
2023/06/18 22:41:49;;;;;;;;;;;27.60;39.60;;;;;;20923006;28;19925;-61
2023/06/18 22:51:57;;;;;;;;;;;27.50;39.50;;;;;;20921509;28;19925;-59
2023/06/18 23:01:58;;;;;;;;;;;27.40;40.30;;;;;;20922159;28;20024;-61
2023/06/18 23:11:59;;;;;;;;;;;27.40;39.70;;;;;;20920038;28;19925;-60
2023/06/18 23:22:00;;;;;;;;;;;27.40;39.60;;;;;;20919886;28;20396;-60
2023/06/18 23:32:00;;;;;;;;;;;27.40;39.30;;;;;;20919606;28;19924;-60
2023/06/18 23:42:01;;;;;;;;;;;27.30;44.20;;;;;;20919137;28;19972;-59
2023/06/18 23:52:03;;;;;;;;;;;27.00;47.20;;;;;;20918193;28;19928;-59
